sensor_id;sensor_type;location;lat;lon;timestamp;temperature;humidity
44063;DHT22;29727;47.606;19.130;2022-10-18T00:02:14;12.10;75.50
44063;DHT22;29727;47.606;19.130;2022-10-18T00:04:39;12.10;75.50
44063;DHT22;29727;47.606;19.130;2022-10-18T00:07:05;12.10;74.80
44063;DHT22;29727;47.606;19.130;2022-10-18T00:09:31;12.10;75.30
44063;DHT22;29727;47.606;19.130;2022-10-18T00:11:57;12.10;75.20
44063;DHT22;29727;47.606;19.130;2022-10-18T00:14:22;12.10;75.10
44063;DHT22;29727;47.606;19.130;2022-10-18T00:16:48;12.00;75.10
44063;DHT22;29727;47.606;19.130;2022-10-18T00:19:14;12.00;75.10
44063;DHT22;29727;47.606;19.130;2022-10-18T00:21:40;12.00;75.10
44063;DHT22;29727;47.606;19.130;2022-10-18T00:24:05;12.00;74.90
44063;DHT22;29727;47.606;19.130;2022-10-18T00:26:31;12.00;74.90
44063;DHT22;29727;47.606;19.130;2022-10-18T00:29:03;12.00;74.80
44063;DHT22;29727;47.606;19.130;2022-10-18T00:31:34;12.00;74.70
44063;DHT22;29727;47.606;19.130;2022-10-18T00:34:02;12.00;74.70
44063;DHT22;29727;47.606;19.130;2022-10-18T00:36:30;11.90;74.70
44063;DHT22;29727;47.606;19.130;2022-10-18T00:38:57;11.90;74.70
44063;DHT22;29727;47.606;19.130;2022-10-18T00:41:25;11.90;74.70
44063;DHT22;29727;47.606;19.130;2022-10-18T00:46:49;11.90;74.70
44063;DHT22;29727;47.606;19.130;2022-10-18T00:49:20;11.80;74.70
44063;DHT22;29727;47.606;19.130;2022-10-18T00:51:55;11.80;74.60
44063;DHT22;29727;47.606;19.130;2022-10-18T00:54:22;11.80;74.50
44063;DHT22;29727;47.606;19.130;2022-10-18T00:56:48;11.80;74.60
44063;DHT22;29727;47.606;19.130;2022-10-18T00:59:16;11.80;74.50
44063;DHT22;29727;47.606;19.130;2022-10-18T01:01:43;11.70;74.50
44063;DHT22;29727;47.606;19.130;2022-10-18T01:04:09;11.70;74.50
44063;DHT22;29727;47.606;19.130;2022-10-18T01:09:30;11.70;74.00
44063;DHT22;29727;47.606;19.130;2022-10-18T01:14:45;11.60;74.50
44063;DHT22;29727;47.606;19.130;2022-10-18T01:17:57;11.60;74.50
44063;DHT22;29727;47.606;19.130;2022-10-18T01:23:44;11.50;74.60
44063;DHT22;29727;47.606;19.130;2022-10-18T01:25:59;11.60;74.70
44063;DHT22;29727;47.606;19.130;2022-10-18T01:31:05;11.50;74.80
44063;DHT22;29727;47.606;19.130;2022-10-18T01:33:48;11.50;74.80
44063;DHT22;29727;47.606;19.130;2022-10-18T01:36:27;11.50;74.80
44063;DHT22;29727;47.606;19.130;2022-10-18T01:38:57;11.50;74.80
44063;DHT22;29727;47.606;19.130;2022-10-18T01:41:24;11.50;74.80
44063;DHT22;29727;47.606;19.130;2022-10-18T01:43:56;11.40;74.80
44063;DHT22;29727;47.606;19.130;2022-10-18T01:46:24;11.40;74.70
44063;DHT22;29727;47.606;19.130;2022-10-18T01:48:51;11.40;74.80
44063;DHT22;29727;47.606;19.130;2022-10-18T01:51:25;11.40;74.90
44063;DHT22;29727;47.606;19.130;2022-10-18T01:53:52;11.40;74.80
44063;DHT22;29727;47.606;19.130;2022-10-18T01:57:14;11.30;74.70
44063;DHT22;29727;47.606;19.130;2022-10-18T02:05:11;11.30;74.70
44063;DHT22;29727;47.606;19.130;2022-10-18T02:08:03;11.30;74.30
44063;DHT22;29727;47.606;19.130;2022-10-18T02:10:35;11.20;74.90
44063;DHT22;29727;47.606;19.130;2022-10-18T02:13:03;11.20;74.90
44063;DHT22;29727;47.606;19.130;2022-10-18T02:15:36;11.20;74.80
44063;DHT22;29727;47.606;19.130;2022-10-18T02:18:07;11.20;74.80
44063;DHT22;29727;47.606;19.130;2022-10-18T02:20:35;11.20;75.00
44063;DHT22;29727;47.606;19.130;2022-10-18T02:23:07;11.10;75.00
44063;DHT22;29727;47.606;19.130;2022-10-18T02:25:34;11.10;74.90
44063;DHT22;29727;47.606;19.130;2022-10-18T02:28:01;11.10;74.60
44063;DHT22;29727;47.606;19.130;2022-10-18T02:30:35;11.10;74.80
44063;DHT22;29727;47.606;19.130;2022-10-18T02:33:12;11.00;74.80
44063;DHT22;29727;47.606;19.130;2022-10-18T02:35:43;11.10;74.90
44063;DHT22;29727;47.606;19.130;2022-10-18T02:38:11;11.00;74.80
44063;DHT22;29727;47.606;19.130;2022-10-18T02:40:38;11.00;74.80
44063;DHT22;29727;47.606;19.130;2022-10-18T02:43:05;11.00;74.90
44063;DHT22;29727;47.606;19.130;2022-10-18T02:45:31;11.00;74.80
44063;DHT22;29727;47.606;19.130;2022-10-18T02:47:57;11.00;74.90
44063;DHT22;29727;47.606;19.130;2022-10-18T02:50:23;11.00;74.80
44063;DHT22;29727;47.606;19.130;2022-10-18T02:52:48;11.00;74.70
44063;DHT22;29727;47.606;19.130;2022-10-18T02:55:15;10.90;74.70
44063;DHT22;29727;47.606;19.130;2022-10-18T02:57:40;10.90;74.80
44063;DHT22;29727;47.606;19.130;2022-10-18T03:00:07;10.90;74.80
44063;DHT22;29727;47.606;19.130;2022-10-18T03:02:33;10.90;74.80
44063;DHT22;29727;47.606;19.130;2022-10-18T03:04:59;10.90;74.80
44063;DHT22;29727;47.606;19.130;2022-10-18T03:07:24;10.80;74.30
44063;DHT22;29727;47.606;19.130;2022-10-18T03:09:50;10.80;74.90
44063;DHT22;29727;47.606;19.130;2022-10-18T03:12:16;10.80;74.90
44063;DHT22;29727;47.606;19.130;2022-10-18T03:14:42;10.80;74.90
44063;DHT22;29727;47.606;19.130;2022-10-18T03:17:07;10.80;74.90
44063;DHT22;29727;47.606;19.130;2022-10-18T03:19:33;10.80;74.50
44063;DHT22;29727;47.606;19.130;2022-10-18T03:21:59;10.70;74.60
44063;DHT22;29727;47.606;19.130;2022-10-18T03:24:24;10.80;74.80
44063;DHT22;29727;47.606;19.130;2022-10-18T03:26:50;10.70;74.90
44063;DHT22;29727;47.606;19.130;2022-10-18T03:29:16;10.70;74.60
44063;DHT22;29727;47.606;19.130;2022-10-18T03:31:41;10.70;74.60
44063;DHT22;29727;47.606;19.130;2022-10-18T03:34:07;10.70;74.80
44063;DHT22;29727;47.606;19.130;2022-10-18T03:36:32;10.70;75.00
44063;DHT22;29727;47.606;19.130;2022-10-18T03:38:58;10.60;75.20
44063;DHT22;29727;47.606;19.130;2022-10-18T03:41:25;10.60;75.30
44063;DHT22;29727;47.606;19.130;2022-10-18T03:43:51;10.60;74.70
44063;DHT22;29727;47.606;19.130;2022-10-18T03:46:16;10.60;75.50
44063;DHT22;29727;47.606;19.130;2022-10-18T03:48:42;10.60;75.50
44063;DHT22;29727;47.606;19.130;2022-10-18T03:51:08;10.60;75.70
44063;DHT22;29727;47.606;19.130;2022-10-18T03:53:34;10.60;75.80
44063;DHT22;29727;47.606;19.130;2022-10-18T03:55:59;10.50;75.50
44063;DHT22;29727;47.606;19.130;2022-10-18T03:58:25;10.50;75.60
44063;DHT22;29727;47.606;19.130;2022-10-18T04:00:52;10.50;76.40
44063;DHT22;29727;47.606;19.130;2022-10-18T04:03:20;10.50;75.80
44063;DHT22;29727;47.606;19.130;2022-10-18T04:05:46;10.50;75.20
44063;DHT22;29727;47.606;19.130;2022-10-18T04:08:12;10.50;75.10
44063;DHT22;29727;47.606;19.130;2022-10-18T04:10:38;10.50;75.80
44063;DHT22;29727;47.606;19.130;2022-10-18T04:13:05;10.50;75.90
44063;DHT22;29727;47.606;19.130;2022-10-18T04:15:31;10.40;75.80
44063;DHT22;29727;47.606;19.130;2022-10-18T04:17:57;10.40;75.60
44063;DHT22;29727;47.606;19.130;2022-10-18T04:20:23;10.40;75.60
44063;DHT22;29727;47.606;19.130;2022-10-18T04:22:49;10.40;75.50
44063;DHT22;29727;47.606;19.130;2022-10-18T04:25:16;10.40;75.50
44063;DHT22;29727;47.606;19.130;2022-10-18T04:27:42;10.30;76.00
44063;DHT22;29727;47.606;19.130;2022-10-18T04:30:08;10.40;75.40
44063;DHT22;29727;47.606;19.130;2022-10-18T04:32:34;10.30;75.30
44063;DHT22;29727;47.606;19.130;2022-10-18T04:35:01;10.30;75.30
44063;DHT22;29727;47.606;19.130;2022-10-18T04:37:26;10.30;74.90
44063;DHT22;29727;47.606;19.130;2022-10-18T04:39:52;10.30;75.00
44063;DHT22;29727;47.606;19.130;2022-10-18T04:42:18;10.30;75.40
44063;DHT22;29727;47.606;19.130;2022-10-18T04:44:43;10.20;75.30
44063;DHT22;29727;47.606;19.130;2022-10-18T04:47:09;10.30;75.00
44063;DHT22;29727;47.606;19.130;2022-10-18T04:49:34;10.20;75.30
44063;DHT22;29727;47.606;19.130;2022-10-18T04:52:00;10.20;75.30
44063;DHT22;29727;47.606;19.130;2022-10-18T04:54:26;10.20;75.30
44063;DHT22;29727;47.606;19.130;2022-10-18T04:56:52;10.10;74.70
44063;DHT22;29727;47.606;19.130;2022-10-18T04:59:18;10.10;75.20
44063;DHT22;29727;47.606;19.130;2022-10-18T05:01:44;10.20;75.30
44063;DHT22;29727;47.606;19.130;2022-10-18T05:04:09;10.10;74.70
44063;DHT22;29727;47.606;19.130;2022-10-18T05:06:35;10.10;75.20
44063;DHT22;29727;47.606;19.130;2022-10-18T05:09:01;10.10;74.60
44063;DHT22;29727;47.606;19.130;2022-10-18T05:11:26;10.20;74.80
44063;DHT22;29727;47.606;19.130;2022-10-18T05:13:52;10.00;75.20
44063;DHT22;29727;47.606;19.130;2022-10-18T05:16:18;10.20;75.00
44063;DHT22;29727;47.606;19.130;2022-10-18T05:18:44;10.00;74.90
44063;DHT22;29727;47.606;19.130;2022-10-18T05:21:10;10.00;75.30
44063;DHT22;29727;47.606;19.130;2022-10-18T05:23:37;10.10;74.80
44063;DHT22;29727;47.606;19.130;2022-10-18T05:26:04;9.90;74.80
44063;DHT22;29727;47.606;19.130;2022-10-18T05:28:30;10.00;74.90
44063;DHT22;29727;47.606;19.130;2022-10-18T05:31:00;10.00;75.40
44063;DHT22;29727;47.606;19.130;2022-10-18T05:33:27;10.00;75.50
44063;DHT22;29727;47.606;19.130;2022-10-18T05:35:52;9.90;75.30
44063;DHT22;29727;47.606;19.130;2022-10-18T05:38:18;9.90;75.40
44063;DHT22;29727;47.606;19.130;2022-10-18T05:40:44;9.90;75.50
44063;DHT22;29727;47.606;19.130;2022-10-18T05:43:09;9.90;75.50
44063;DHT22;29727;47.606;19.130;2022-10-18T05:45:35;9.90;75.50
44063;DHT22;29727;47.606;19.130;2022-10-18T05:48:00;9.90;75.70
44063;DHT22;29727;47.606;19.130;2022-10-18T05:50:26;9.90;75.90
44063;DHT22;29727;47.606;19.130;2022-10-18T05:52:55;9.90;75.70
44063;DHT22;29727;47.606;19.130;2022-10-18T05:55:21;9.90;76.10
44063;DHT22;29727;47.606;19.130;2022-10-18T05:57:50;12.50;77.40
44063;DHT22;29727;47.606;19.130;2022-10-18T06:00:17;9.90;75.90
44063;DHT22;29727;47.606;19.130;2022-10-18T06:02:43;10.10;76.20
44063;DHT22;29727;47.606;19.130;2022-10-18T06:05:09;10.00;76.60
44063;DHT22;29727;47.606;19.130;2022-10-18T06:07:35;10.00;76.60
44063;DHT22;29727;47.606;19.130;2022-10-18T06:10:00;10.00;77.30
44063;DHT22;29727;47.606;19.130;2022-10-18T06:12:26;10.00;77.70
44063;DHT22;29727;47.606;19.130;2022-10-18T06:14:52;10.10;78.00
44063;DHT22;29727;47.606;19.130;2022-10-18T06:17:17;10.10;78.00
44063;DHT22;29727;47.606;19.130;2022-10-18T06:19:43;10.10;78.10
44063;DHT22;29727;47.606;19.130;2022-10-18T06:22:12;10.20;78.30
44063;DHT22;29727;47.606;19.130;2022-10-18T06:24:37;10.20;78.80
44063;DHT22;29727;47.606;19.130;2022-10-18T06:27:03;10.20;79.20
44063;DHT22;29727;47.606;19.130;2022-10-18T06:29:37;10.50;79.10
44063;DHT22;29727;47.606;19.130;2022-10-18T06:32:04;10.30;79.40
44063;DHT22;29727;47.606;19.130;2022-10-18T06:34:30;10.50;79.90
44063;DHT22;29727;47.606;19.130;2022-10-18T06:36:55;10.40;80.40
44063;DHT22;29727;47.606;19.130;2022-10-18T06:39:21;10.50;80.80
44063;DHT22;29727;47.606;19.130;2022-10-18T06:41:47;10.70;82.00
44063;DHT22;29727;47.606;19.130;2022-10-18T06:44:12;10.90;82.90
44063;DHT22;29727;47.606;19.130;2022-10-18T06:46:43;10.80;83.30
44063;DHT22;29727;47.606;19.130;2022-10-18T06:49:09;10.90;83.50
44063;DHT22;29727;47.606;19.130;2022-10-18T06:51:36;11.00;84.00
44063;DHT22;29727;47.606;19.130;2022-10-18T06:54:02;11.10;84.60
44063;DHT22;29727;47.606;19.130;2022-10-18T06:56:28;11.20;84.40
44063;DHT22;29727;47.606;19.130;2022-10-18T06:58:54;11.20;84.90
44063;DHT22;29727;47.606;19.130;2022-10-18T07:01:20;11.40;84.90
44063;DHT22;29727;47.606;19.130;2022-10-18T07:03:47;11.30;85.20
44063;DHT22;29727;47.606;19.130;2022-10-18T07:06:15;11.40;85.20
44063;DHT22;29727;47.606;19.130;2022-10-18T07:08:41;11.50;84.70
44063;DHT22;29727;47.606;19.130;2022-10-18T07:11:13;11.60;84.70
44063;DHT22;29727;47.606;19.130;2022-10-18T07:13:39;11.70;84.70
44063;DHT22;29727;47.606;19.130;2022-10-18T07:16:10;11.70;84.40
44063;DHT22;29727;47.606;19.130;2022-10-18T07:18:38;11.80;84.40
44063;DHT22;29727;47.606;19.130;2022-10-18T07:21:07;11.90;83.80
44063;DHT22;29727;47.606;19.130;2022-10-18T07:23:38;11.90;84.20
44063;DHT22;29727;47.606;19.130;2022-10-18T07:26:18;12.10;84.20
44063;DHT22;29727;47.606;19.130;2022-10-18T07:28:46;12.20;83.60
44063;DHT22;29727;47.606;19.130;2022-10-18T07:31:12;12.20;84.10
44063;DHT22;29727;47.606;19.130;2022-10-18T07:33:38;12.30;83.90
44063;DHT22;29727;47.606;19.130;2022-10-18T07:36:06;12.40;83.50
44063;DHT22;29727;47.606;19.130;2022-10-18T07:38:33;12.50;83.40
44063;DHT22;29727;47.606;19.130;2022-10-18T07:41:00;12.50;83.20
44063;DHT22;29727;47.606;19.130;2022-10-18T07:43:27;12.70;82.60
44063;DHT22;29727;47.606;19.130;2022-10-18T07:45:54;12.70;83.00
44063;DHT22;29727;47.606;19.130;2022-10-18T07:48:20;12.80;82.80
44063;DHT22;29727;47.606;19.130;2022-10-18T07:50:46;12.90;82.40
44063;DHT22;29727;47.606;19.130;2022-10-18T07:53:11;13.00;82.00
44063;DHT22;29727;47.606;19.130;2022-10-18T07:55:37;13.10;81.50
44063;DHT22;29727;47.606;19.130;2022-10-18T07:58:03;13.20;81.50
44063;DHT22;29727;47.606;19.130;2022-10-18T08:00:28;13.30;81.50
44063;DHT22;29727;47.606;19.130;2022-10-18T08:02:58;13.40;81.30
44063;DHT22;29727;47.606;19.130;2022-10-18T08:05:24;13.50;80.30
44063;DHT22;29727;47.606;19.130;2022-10-18T08:07:51;13.60;78.90
44063;DHT22;29727;47.606;19.130;2022-10-18T08:10:17;13.70;79.00
44063;DHT22;29727;47.606;19.130;2022-10-18T08:12:42;13.80;78.90
44063;DHT22;29727;47.606;19.130;2022-10-18T08:15:08;13.90;78.60
44063;DHT22;29727;47.606;19.130;2022-10-18T08:17:34;14.00;77.90
44063;DHT22;29727;47.606;19.130;2022-10-18T08:20:00;14.10;77.90
44063;DHT22;29727;47.606;19.130;2022-10-18T08:22:25;14.20;77.00
44063;DHT22;29727;47.606;19.130;2022-10-18T08:24:51;14.40;76.40
44063;DHT22;29727;47.606;19.130;2022-10-18T08:27:17;14.50;76.00
44063;DHT22;29727;47.606;19.130;2022-10-18T08:29:42;14.60;76.00
44063;DHT22;29727;47.606;19.130;2022-10-18T08:32:08;14.70;74.30
44063;DHT22;29727;47.606;19.130;2022-10-18T08:34:34;14.80;72.90
44063;DHT22;29727;47.606;19.130;2022-10-18T08:37:01;15.00;72.60
44063;DHT22;29727;47.606;19.130;2022-10-18T08:39:27;15.10;72.50
44063;DHT22;29727;47.606;19.130;2022-10-18T08:44:29;15.40;70.20
44063;DHT22;29727;47.606;19.130;2022-10-18T08:47:04;15.50;70.00
44063;DHT22;29727;47.606;19.130;2022-10-18T08:49:38;15.60;69.80
44063;DHT22;29727;47.606;19.130;2022-10-18T08:52:13;15.80;69.00
44063;DHT22;29727;47.606;19.130;2022-10-18T08:55:02;15.90;68.20
44063;DHT22;29727;47.606;19.130;2022-10-18T08:57:29;16.10;67.90
44063;DHT22;29727;47.606;19.130;2022-10-18T08:59:55;16.20;67.10
44063;DHT22;29727;47.606;19.130;2022-10-18T09:02:33;16.40;66.30
44063;DHT22;29727;47.606;19.130;2022-10-18T09:05:15;16.50;65.70
44063;DHT22;29727;47.606;19.130;2022-10-18T09:10:42;16.90;63.20
44063;DHT22;29727;47.606;19.130;2022-10-18T09:16:06;17.20;61.90
44063;DHT22;29727;47.606;19.130;2022-10-18T09:21:19;17.50;60.10
44063;DHT22;29727;47.606;19.130;2022-10-18T09:24:01;17.70;58.40
44063;DHT22;29727;47.606;19.130;2022-10-18T09:26:35;17.80;58.20
44063;DHT22;29727;47.606;19.130;2022-10-18T09:31:48;18.10;56.60
44063;DHT22;29727;47.606;19.130;2022-10-18T09:37:03;18.40;55.40
44063;DHT22;29727;47.606;19.130;2022-10-18T09:39:32;18.60;54.80
44063;DHT22;29727;47.606;19.130;2022-10-18T09:45:20;18.80;55.10
44063;DHT22;29727;47.606;19.130;2022-10-18T09:48:11;18.90;53.60
44063;DHT22;29727;47.606;19.130;2022-10-18T09:50:59;19.20;52.90
44063;DHT22;29727;47.606;19.130;2022-10-18T09:53:32;19.20;53.40
44063;DHT22;29727;47.606;19.130;2022-10-18T09:56:13;19.30;51.70
44063;DHT22;29727;47.606;19.130;2022-10-18T10:01:05;19.60;53.50
44063;DHT22;29727;47.606;19.130;2022-10-18T10:03:33;19.70;51.90
44063;DHT22;29727;47.606;19.130;2022-10-18T10:06:15;19.80;51.80
44063;DHT22;29727;47.606;19.130;2022-10-18T10:09:06;20.00;51.30
44063;DHT22;29727;47.606;19.130;2022-10-18T10:11:49;20.10;50.70
44063;DHT22;29727;47.606;19.130;2022-10-18T10:14:20;20.20;49.10
44063;DHT22;29727;47.606;19.130;2022-10-18T10:19:29;20.40;50.00
44063;DHT22;29727;47.606;19.130;2022-10-18T10:22:37;20.50;49.20
44063;DHT22;29727;47.606;19.130;2022-10-18T10:25:04;20.70;49.20
44063;DHT22;29727;47.606;19.130;2022-10-18T10:30:01;20.90;47.90
44063;DHT22;29727;47.606;19.130;2022-10-18T10:32:45;21.00;47.20
44063;DHT22;29727;47.606;19.130;2022-10-18T10:35:33;21.10;47.50
44063;DHT22;29727;47.606;19.130;2022-10-18T10:37:59;21.20;45.70
44063;DHT22;29727;47.606;19.130;2022-10-18T10:40:26;21.40;47.00
44063;DHT22;29727;47.606;19.130;2022-10-18T10:45:36;21.50;45.90
44063;DHT22;29727;47.606;19.130;2022-10-18T10:48:13;21.60;46.00
44063;DHT22;29727;47.606;19.130;2022-10-18T10:58:48;22.00;44.80
44063;DHT22;29727;47.606;19.130;2022-10-18T11:01:23;22.10;45.30
44063;DHT22;29727;47.606;19.130;2022-10-18T11:03:51;22.20;43.60
44063;DHT22;29727;47.606;19.130;2022-10-18T11:06:38;22.40;43.40
44063;DHT22;29727;47.606;19.130;2022-10-18T11:09:15;22.40;43.90
44063;DHT22;29727;47.606;19.130;2022-10-18T11:11:49;22.50;42.30
44063;DHT22;29727;47.606;19.130;2022-10-18T11:14:26;22.60;41.70
44063;DHT22;29727;47.606;19.130;2022-10-18T11:17:13;22.50;42.00
44063;DHT22;29727;47.606;19.130;2022-10-18T11:22:37;22.60;41.80
44063;DHT22;29727;47.606;19.130;2022-10-18T11:25:07;22.60;41.90
44063;DHT22;29727;47.606;19.130;2022-10-18T11:27:40;22.60;41.00
44063;DHT22;29727;47.606;19.130;2022-10-18T11:33:04;22.80;41.20
44063;DHT22;29727;47.606;19.130;2022-10-18T11:35:44;23.00;40.90
44063;DHT22;29727;47.606;19.130;2022-10-18T11:43:56;23.10;40.30
44063;DHT22;29727;47.606;19.130;2022-10-18T11:47:11;23.20;43.10
44063;DHT22;29727;47.606;19.130;2022-10-18T11:49:17;23.30;40.90
44063;DHT22;29727;47.606;19.130;2022-10-18T11:55:01;23.50;41.50
44063;DHT22;29727;47.606;19.130;2022-10-18T12:05:37;24.00;39.20
44063;DHT22;29727;47.606;19.130;2022-10-18T12:08:07;24.10;39.50
44063;DHT22;29727;47.606;19.130;2022-10-18T12:10:34;24.10;40.00
44063;DHT22;29727;47.606;19.130;2022-10-18T12:13:03;24.20;38.50
44063;DHT22;29727;47.606;19.130;2022-10-18T12:15:34;24.20;39.70
44063;DHT22;29727;47.606;19.130;2022-10-18T12:18:04;24.20;39.60
44063;DHT22;29727;47.606;19.130;2022-10-18T12:20:33;24.40;38.30
44063;DHT22;29727;47.606;19.130;2022-10-18T12:23:05;24.40;38.90
44063;DHT22;29727;47.606;19.130;2022-10-18T12:25:40;24.40;39.60
44063;DHT22;29727;47.606;19.130;2022-10-18T12:28:12;24.50;39.30
44063;DHT22;29727;47.606;19.130;2022-10-18T12:30:44;24.60;40.10
44063;DHT22;29727;47.606;19.130;2022-10-18T12:33:16;24.60;39.40
44063;DHT22;29727;47.606;19.130;2022-10-18T12:38:37;24.70;39.60
44063;DHT22;29727;47.606;19.130;2022-10-18T12:41:05;24.70;39.30
44063;DHT22;29727;47.606;19.130;2022-10-18T12:43:32;24.70;38.70
44063;DHT22;29727;47.606;19.130;2022-10-18T12:46:04;24.80;37.50
44063;DHT22;29727;47.606;19.130;2022-10-18T12:48:34;24.80;39.40
44063;DHT22;29727;47.606;19.130;2022-10-18T12:51:14;24.80;40.10
44063;DHT22;29727;47.606;19.130;2022-10-18T12:53:42;24.80;39.80
44063;DHT22;29727;47.606;19.130;2022-10-18T13:09:38;25.00;37.90
44063;DHT22;29727;47.606;19.130;2022-10-18T13:28:15;25.00;38.20
44063;DHT22;29727;47.606;19.130;2022-10-18T13:30:56;25.00;38.80
44063;DHT22;29727;47.606;19.130;2022-10-18T13:33:31;25.10;38.50
44063;DHT22;29727;47.606;19.130;2022-10-18T13:48:57;25.20;37.40
44063;DHT22;29727;47.606;19.130;2022-10-18T14:05:40;24.90;37.40
44063;DHT22;29727;47.606;19.130;2022-10-18T14:08:36;24.80;36.20
44063;DHT22;29727;47.606;19.130;2022-10-18T14:11:04;24.70;37.20
44063;DHT22;29727;47.606;19.130;2022-10-18T14:13:42;24.60;37.10
44063;DHT22;29727;47.606;19.130;2022-10-18T14:19:15;24.40;37.70
44063;DHT22;29727;47.606;19.130;2022-10-18T14:21:49;24.30;37.70
44063;DHT22;29727;47.606;19.130;2022-10-18T14:24:22;24.20;38.30
44063;DHT22;29727;47.606;19.130;2022-10-18T14:27:08;24.20;38.50
44063;DHT22;29727;47.606;19.130;2022-10-18T14:29:35;24.10;37.70
44063;DHT22;29727;47.606;19.130;2022-10-18T14:32:01;24.10;37.50
44063;DHT22;29727;47.606;19.130;2022-10-18T14:34:26;24.00;37.50
44063;DHT22;29727;47.606;19.130;2022-10-18T14:36:52;23.90;37.50
44063;DHT22;29727;47.606;19.130;2022-10-18T14:39:25;23.80;38.70
44063;DHT22;29727;47.606;19.130;2022-10-18T14:41:55;23.80;38.70
44063;DHT22;29727;47.606;19.130;2022-10-18T14:44:25;23.70;39.20
44063;DHT22;29727;47.606;19.130;2022-10-18T14:46:57;23.60;38.00
44063;DHT22;29727;47.606;19.130;2022-10-18T14:49:25;23.60;39.10
44063;DHT22;29727;47.606;19.130;2022-10-18T14:51:52;23.50;39.40
44063;DHT22;29727;47.606;19.130;2022-10-18T14:54:24;23.40;39.60
44063;DHT22;29727;47.606;19.130;2022-10-18T14:56:52;23.30;39.80
44063;DHT22;29727;47.606;19.130;2022-10-18T14:59:31;23.30;39.50
44063;DHT22;29727;47.606;19.130;2022-10-18T15:02:08;23.20;39.70
44063;DHT22;29727;47.606;19.130;2022-10-18T15:04:37;23.20;40.40
44063;DHT22;29727;47.606;19.130;2022-10-18T15:07:06;23.00;42.60
44063;DHT22;29727;47.606;19.130;2022-10-18T15:09:37;23.00;43.50
44063;DHT22;29727;47.606;19.130;2022-10-18T15:12:05;22.90;44.50
44063;DHT22;29727;47.606;19.130;2022-10-18T15:14:32;22.80;45.30
44063;DHT22;29727;47.606;19.130;2022-10-18T15:17:15;22.70;45.50
44063;DHT22;29727;47.606;19.130;2022-10-18T15:19:54;22.60;46.30
44063;DHT22;29727;47.606;19.130;2022-10-18T15:22:25;22.40;45.60
44063;DHT22;29727;47.606;19.130;2022-10-18T15:27:31;22.30;47.10
44063;DHT22;29727;47.606;19.130;2022-10-18T15:30:08;22.20;47.90
44063;DHT22;29727;47.606;19.130;2022-10-18T15:35:17;21.90;49.10
44063;DHT22;29727;47.606;19.130;2022-10-18T15:37:45;21.80;49.40
44063;DHT22;29727;47.606;19.130;2022-10-18T15:42:51;21.60;49.80
44063;DHT22;29727;47.606;19.130;2022-10-18T15:45:44;21.40;50.80
44063;DHT22;29727;47.606;19.130;2022-10-18T15:50:41;21.20;52.40
44063;DHT22;29727;47.606;19.130;2022-10-18T15:55:46;20.80;53.10
44063;DHT22;29727;47.606;19.130;2022-10-18T15:58:22;20.80;53.60
44063;DHT22;29727;47.606;19.130;2022-10-18T16:00:49;20.60;54.10
44063;DHT22;29727;47.606;19.130;2022-10-18T16:03:16;20.60;54.60
44063;DHT22;29727;47.606;19.130;2022-10-18T16:05:42;20.40;53.90
44063;DHT22;29727;47.606;19.130;2022-10-18T16:08:27;20.20;54.10
44063;DHT22;29727;47.606;19.130;2022-10-18T16:10:56;20.20;55.00
44063;DHT22;29727;47.606;19.130;2022-10-18T16:13:23;20.10;55.60
44063;DHT22;29727;47.606;19.130;2022-10-18T16:15:49;20.00;55.60
44063;DHT22;29727;47.606;19.130;2022-10-18T16:18:18;19.80;55.80
44063;DHT22;29727;47.606;19.130;2022-10-18T16:20:44;19.70;56.70
44063;DHT22;29727;47.606;19.130;2022-10-18T16:23:21;19.60;56.70
44063;DHT22;29727;47.606;19.130;2022-10-18T16:25:47;19.50;56.60
44063;DHT22;29727;47.606;19.130;2022-10-18T16:28:23;19.40;57.00
44063;DHT22;29727;47.606;19.130;2022-10-18T16:30:58;19.30;57.80
44063;DHT22;29727;47.606;19.130;2022-10-18T16:33:24;19.10;57.70
44063;DHT22;29727;47.606;19.130;2022-10-18T16:35:51;19.00;56.70
44063;DHT22;29727;47.606;19.130;2022-10-18T16:38:27;19.00;57.40
44063;DHT22;29727;47.606;19.130;2022-10-18T16:40:53;18.90;58.00
44063;DHT22;29727;47.606;19.130;2022-10-18T16:43:19;18.80;58.60
44063;DHT22;29727;47.606;19.130;2022-10-18T16:45:44;18.70;58.50
44063;DHT22;29727;47.606;19.130;2022-10-18T16:48:20;18.60;58.80
44063;DHT22;29727;47.606;19.130;2022-10-18T16:50:47;18.50;58.90
44063;DHT22;29727;47.606;19.130;2022-10-18T16:53:13;18.40;59.50
44063;DHT22;29727;47.606;19.130;2022-10-18T16:55:40;18.30;59.10
44063;DHT22;29727;47.606;19.130;2022-10-18T16:58:09;18.20;59.40
44063;DHT22;29727;47.606;19.130;2022-10-18T17:00:38;18.10;59.20
44063;DHT22;29727;47.606;19.130;2022-10-18T17:03:05;18.00;59.30
44063;DHT22;29727;47.606;19.130;2022-10-18T17:05:31;17.90;59.80
44063;DHT22;29727;47.606;19.130;2022-10-18T17:07:56;17.80;60.00
44063;DHT22;29727;47.606;19.130;2022-10-18T17:10:22;17.80;60.90
44063;DHT22;29727;47.606;19.130;2022-10-18T17:12:49;17.70;61.20
44063;DHT22;29727;47.606;19.130;2022-10-18T17:15:16;17.60;60.30
44063;DHT22;29727;47.606;19.130;2022-10-18T17:17:42;17.60;59.80
44063;DHT22;29727;47.606;19.130;2022-10-18T17:20:10;17.50;59.80
44063;DHT22;29727;47.606;19.130;2022-10-18T17:22:40;17.40;60.20
44063;DHT22;29727;47.606;19.130;2022-10-18T17:25:06;17.30;61.20
44063;DHT22;29727;47.606;19.130;2022-10-18T17:27:32;17.20;61.60
44063;DHT22;29727;47.606;19.130;2022-10-18T17:29:57;17.10;61.90
44063;DHT22;29727;47.606;19.130;2022-10-18T17:32:23;17.00;62.00
44063;DHT22;29727;47.606;19.130;2022-10-18T17:34:48;16.90;62.20
44063;DHT22;29727;47.606;19.130;2022-10-18T17:37:14;16.90;62.20
44063;DHT22;29727;47.606;19.130;2022-10-18T17:39:40;16.80;62.40
44063;DHT22;29727;47.606;19.130;2022-10-18T17:42:05;16.80;62.50
44063;DHT22;29727;47.606;19.130;2022-10-18T17:44:31;16.70;62.90
44063;DHT22;29727;47.606;19.130;2022-10-18T17:46:57;16.70;63.00
44063;DHT22;29727;47.606;19.130;2022-10-18T17:49:22;16.60;63.30
44063;DHT22;29727;47.606;19.130;2022-10-18T17:51:48;16.60;63.40
44063;DHT22;29727;47.606;19.130;2022-10-18T17:54:14;16.50;63.10
44063;DHT22;29727;47.606;19.130;2022-10-18T17:56:39;16.50;63.00
44063;DHT22;29727;47.606;19.130;2022-10-18T17:59:05;16.40;63.10
44063;DHT22;29727;47.606;19.130;2022-10-18T18:01:31;16.40;62.90
44063;DHT22;29727;47.606;19.130;2022-10-18T18:03:58;16.40;63.20
44063;DHT22;29727;47.606;19.130;2022-10-18T18:06:29;16.20;63.10
44063;DHT22;29727;47.606;19.130;2022-10-18T18:08:56;16.20;63.60